• Join FlightAware (Why Join?)
  • Login
  • US Flag 
08:33AM EDT


 

Airport Tracker/Info


-or-


 

Live Flight TrackerFlight Track Log ✈ N508QS ✈ 24-Jun-2013 ✈ LEMD / MAD - KTEB

Flight Track Log - Related Links

Times and Time Zones

All times are in EDT time to prevent confusion due to time zone crossing. See the N508QS flight status page for this flight to view local times or setup timezone preferences in your user account.

Time Position Orientation Groundspeed Altitude Reporting Facility
EDT Latitude Longitude Course Direction KTS MPH feet Rate Location/Type
07:36PM 45.6039 -53.2505 295° West  Level Estimated
07:37PM 45.5821 -53.4254 260° West  Level Estimated
07:37PM 45.0000 -50.0000 265° West 461 531 40,000  Level ETMS Enhanced Traffic Management System
07:38PM 45.5600 -53.6002 260° West  Level Estimated
07:38PM 44.9333 -50.7333 264° West 450 518 40,000  Level Gander Center
07:39PM 45.5376 -53.7748 260° West  Level Estimated
07:39PM 44.9333 -50.9000 270° West 450 518 40,400  Level Gander Center
07:40PM 45.5150 -53.9493 260° West  Level Estimated
07:40PM 44.9333 -51.1000 270° West 450 518 40,900  Level Gander Center
07:41PM 45.4921 -54.1236 259° West  Level Estimated
07:41PM 44.9333 -51.2667 270° West 450 518 41,500  Level Gander Center
07:42PM 45.4689 -54.2979 259° West  Level Estimated
07:42PM 44.9167 -51.4500 263° West 450 518 42,400  Level Gander Center
07:43PM 44.8813 -51.6204 264° West 461 531 40,000 600 Descending FlightAware Transoceanic
07:43PM 44.9167 -51.6167 270° West 450 518 43,000 1,560 Climbing Gander Center
07:44PM 44.8683 -51.7950 264° West  Level Estimated
07:44PM 44.9167 -51.7833 270° West 440 506 43,000  Level Gander Center
07:45PM 44.9167 -51.9667 270° West 440 506 43,000  Level Gander Center
07:46PM 44.9000 -52.1333 262° West 440 506 43,000  Level Gander Center
07:47PM 44.9000 -52.3000 270° West 430 495 43,000  Level Gander Center
07:48PM 44.9000 -52.4667 270° West 430 495 43,000  Level Gander Center
07:49PM 44.9000 -52.6333 270° West 430 495 43,000  Level Gander Center
07:50PM 44.8833 -52.8000 262° West 440 506 43,000  Level Gander Center
07:51PM 44.8667 -52.9667 262° West 440 506 43,000  Level Gander Center
07:52PM 44.8667 -53.1667 270° West 450 518 43,000  Level Gander Center
07:53PM 44.8667 -53.3333 270° West 440 506 43,000  Level Gander Center
07:54PM 44.8667 -53.5167 270° West 450 518 43,000  Level Gander Center
07:55PM 44.8667 -53.6833 270° West 440 506 43,000  Level Gander Center
07:56PM 44.8500 -53.8500 262° West 440 506 43,000  Level Gander Center
07:57PM 44.8500 -54.0333 270° West 440 506 43,000  Level Gander Center
07:58PM 44.8333 -54.2000 262° West 440 506 43,000  Level Gander Center
07:59PM 44.8167 -54.3667 262° West 430 495 43,000  Level Gander Center
08:00PM 44.8167 -54.5333 270° West 440 506 43,000  Level Gander Center
08:01PM 44.8167 -54.7167 270° West 450 518 43,000  Level Gander Center
08:02PM 44.8000 -54.8833 262° West 440 506 43,000  Level Gander Center
08:03PM 44.8000 -55.0500 270° West 430 495 43,000  Level Gander Center
08:04PM 44.7833 -55.2167 262° West 440 506 43,000  Level Gander Center
08:05PM 44.7833 -55.4167 270° West 450 518 43,000  Level Gander Center
08:06PM 44.7833 -55.5667 270° West 450 518 43,000  Level Gander Center
08:07PM 44.7667 -55.7667 263° West 440 506 43,000  Level Gander Center
08:08PM 44.7500 -55.9333 262° West 440 506 43,000  Level Gander Center
08:09PM 44.7333 -56.1000 262° West 440 506 43,000  Level Gander Center
08:10PM 44.7333 -56.2667 270° West 440 506 43,000  Level Gander Center
08:11PM 44.7167 -56.4667 263° West 440 506 43,000  Level Moncton Center
08:12PM 44.7167 -56.6167 270° West 430 495 43,000  Level Moncton Center
08:13PM 44.7000 -56.7833 262° West 440 506 43,000  Level Gander Center
08:14PM 44.6833 -56.9500 262° West 440 506 43,000  Level Gander Center
08:15PM 44.6667 -57.1333 263° West 450 518 43,000  Level Gander Center
08:16PM 44.6500 -57.3000 262° West 440 506 43,000  Level Gander Center
08:17PM 44.6500 -57.4667 270° West 440 506 43,000  Level Gander Center
08:18PM 44.6333 -57.6333 262° West 440 506 43,000  Level Gander Center
08:19PM 44.6167 -57.8000 262° West 440 506 43,000  Level Gander Center
08:20PM 44.6167 -57.9833 270° West 430 495 43,000  Level Gander Center
08:21PM 44.6000 -58.1500 262° West 430 495 43,000  Level Gander Center
08:22PM 44.5833 -58.3167 262° West 430 495 43,000  Level Gander Center
08:23PM 44.5667 -58.4833 262° West 440 506 43,000  Level Gander Center
08:24PM 44.5667 -58.6333 270° West 440 506 43,000  Level Gander Center
08:25PM 44.5500 -58.8333 263° West 440 506 43,000  Level Gander Center
08:26PM 44.5333 -58.9833 261° West 440 506 43,000  Level Gander Center
08:27PM 44.5167 -59.1500 262° West 430 495 43,000  Level Gander Center
08:28PM 44.5000 -59.3167 262° West 440 506 43,000  Level Gander Center
08:29PM 44.4833 -59.5000 263° West 440 506 43,000  Level Gander Center
08:30PM 44.4667 -59.6667 262° West 440 506 43,000  Level Gander Center
08:31PM 44.4500 -59.8333 262° West 440 506 43,000  Level Gander Center
08:32PM 44.4333 -60.0000 262° West 440 506 43,000  Level Gander Center
08:33PM 44.4167 -60.1667 262° West 440 506 43,000  Level Gander Center
08:34PM 44.4000 -60.3500 263° West 440 506 43,000  Level Gander Center
08:35PM 44.3833 -60.5167 262° West 440 506 43,000  Level Gander Center
08:37PM 44.3667 -60.8333 266° West 440 506 43,000  Level Gander Center
08:38PM 44.3333 -61.0333 257° West 440 506 43,000  Level Gander Center
08:39PM 44.3167 -61.1833 261° West 440 506 43,000  Level Gander Center
08:40PM 44.3000 -61.3833 263° West 440 506 43,000  Level Gander Center
08:41PM 44.2833 -61.5167 260° West 440 506 43,000  Level Gander Center
08:42PM 44.2667 -61.6833 262° West 440 506 43,000  Level Gander Center
08:43PM 44.2500 -61.8667 263° West 430 495 43,000  Level Gander Center
08:44PM 44.2167 -62.0333 254° West 430 495 43,000  Level Gander Center
08:45PM 44.2000 -62.1833 261° West 440 506 43,000  Level Gander Center
08:46PM 44.1833 -62.3500 262° West 440 506 43,000  Level Gander Center
08:47PM 44.1667 -62.5333 263° West 430 495 43,000  Level Moncton Center
08:48PM 44.1500 -62.7000 262° West 430 495 43,000  Level Gander Center
08:49PM 44.1333 -62.8667 262° West 430 495 43,000  Level Gander Center
08:50PM 44.1167 -63.0167 261° West 440 506 43,000  Level Gander Center
08:51PM 44.1000 -63.2000 263° West 440 506 43,000  Level Gander Center
08:52PM 44.0500 -63.3500 245° Southwest 440 506 43,000  Level Gander Center
08:53PM 44.0500 -63.5000 270° West 440 506 43,000 -60 Level Gander Center
08:54PM 44.0167 -63.6833 256° West 440 506 42,900  Descending Gander Center
08:55PM 44.0000 -63.8500 262° West 440 506 43,000  Climbing Gander Center
08:56PM 43.9833 -64.0167 262° West 440 506 43,000  Level Gander Center
08:57PM 43.9500 -64.1667 253° West 430 495 43,000  Level Gander Center
08:58PM 43.9333 -64.3500 263° West 440 506 43,000  Level Gander Center
08:59PM 43.9167 -64.5167 262° West 430 495 43,000  Level Gander Center
09:00PM 43.9000 -64.7000 263° West 430 495 43,000  Level Gander Center
09:01PM 43.8667 -64.8333 251° West 430 495 43,000  Level Gander Center
09:02PM 43.8500 -65.0000 262° West 430 495 43,000  Level Gander Center
09:03PM 43.8167 -65.1833 256° West 440 506 43,000  Level Gander Center
09:04PM 43.8000 -65.3500 262° West 440 506 43,000  Level Gander Center
09:05PM 43.7833 -65.5333 263° West 440 506 43,000  Level Moncton Center
09:06PM 43.7500 -65.7000 255° West 440 506 43,000  Level Moncton Center
09:07PM 43.7333 -65.8500 261° West 440 506 43,000  Level Moncton Center
09:08PM 43.7000 -66.0167 255° West 440 506 43,000  Level Moncton Center
09:09PM 43.6667 -66.2000 256° West 440 506 43,000  Level Moncton Center
09:10PM 43.6500 -66.3667 262° West 440 506 43,000  Level Moncton Center
09:11PM 43.6333 -66.5167 261° West 440 506 43,000  Level Moncton Center
09:12PM 43.6000 -66.6833 255° West 440 506 43,000  Level Moncton Center
09:13PM 43.5667 -66.8500 255° West 440 506 43,000  Level Moncton Center
09:14PM 43.5333 -67.0167 255° West 440 506 43,000  Level Moncton Center
09:15PM 43.5167 -67.1833 262° West 440 506 43,000 -120 Level Moncton Center
09:16PM 43.5050 -67.2719 260° West 443 510 42,900 -120 Descending Boston Center
09:17PM 43.4683 -67.4353 253° West 443 510 42,900  Level Boston Center
09:18PM 43.4336 -67.5956 253° West 448 516 42,900  Level Boston Center
09:19PM 43.3967 -67.7586 253° West 448 516 42,900  Level Boston Center
09:20PM 43.3594 -67.9217 253° West 448 516 42,900  Level Boston Center
09:21PM 43.3261 -68.0839 254° West 448 516 43,000  Climbing Boston Center
09:22PM 43.2903 -68.2408 253° West 448 516 42,900 -60 Descending Boston Center
09:23PM 43.2519 -68.3972 251° West 448 516 42,900  Level Boston Center
09:24PM 43.2158 -68.5536 252° West 443 510 42,900  Level Boston Center
09:25PM 43.1833 -68.7039 254° West 436 502 43,000  Climbing Boston Center
09:26PM 43.1428 -68.8714 252° West 441 507 43,000 -600 Level Boston Center
09:29PM 43.0278 -69.3611 252° West 458 527 40,700 -1,260 Descending Boston Center
09:31PM 42.9525 -69.6714 252° West 442 509 36,900 -1,800 Descending Boston Center
09:32PM 42.9242 -69.8031 254° West 442 509 35,400 -1,980 Descending Boston Center
09:33PM 42.8744 -69.9950 251° West 449 517 33,000 -2,100 Descending Boston Center
09:34PM 42.8378 -70.1408 251° West 449 517 31,200 -1,920 Descending Boston Center
09:35PM 42.7950 -70.3039 250° West 449 517 29,200 -2,100 Descending Boston Center
09:36PM 42.7544 -70.4806 253° West 449 517 27,100 -1,620 Descending Boston Center
09:37PM 42.7153 -70.6372 251° West 444 511 26,000 -600 Descending Boston Center
09:38PM 42.6761 -70.7908 251° West 444 511 26,000  Level Boston Center
09:39PM 42.6367 -70.9528 252° West 450 518 26,000  Level Boston Center
09:40PM 42.5947 -71.1089 250° West 450 518 26,000 -120 Level Boston Center
09:41PM 42.5547 -71.2647 251° West 450 518 25,800 -600 Descending Boston Center
09:42PM 42.5167 -71.4206 252° West 450 518 24,800 -900 Descending Boston Center
09:43PM 42.4742 -71.5533 247° West 445 512 24,000 -420 Descending Boston Center
09:44PM 42.4356 -71.7086 251° West 445 512 24,000 -240 Level Boston Center
09:45PM 42.3947 -71.8608 250° West 440 506 23,600 -960 Descending Boston Center
09:46PM 42.3536 -72.0103 250° West 435 501 22,100 -1,500 Descending Boston Center
09:47PM 42.3147 -72.1564 250° West 430 495 20,600 -1,500 Descending Boston Center
09:48PM 42.2731 -72.3083 250° West 420 483 19,100 -1,500 Descending Boston Center
09:49PM 42.2358 -72.4486 250° West 402 463 17,600 -1,500 Descending Boston Center
09:50PM 42.1981 -72.5858 250° West 396 456 16,100 -660 Descending Boston Center
09:51PM 42.1603 -72.7453 252° West 391 450 16,100  Level Boston Center
09:52PM 42.1494 -72.9161 265° West 379 436 16,100  Level Boston Center
09:53PM 42.1403 -73.0392 264° West 379 436 16,100  Level Boston Center
09:54PM 42.1311 -73.1958 266° West 379 436 16,100  Level Boston Center
09:55PM 42.1219 -73.3247 265° West 386 444 16,100 -120 Level Boston Center
09:56PM 42.0708 -73.4358 238° Southwest 380 437 15,900  Descending Boston Center
09:57PM 42.0008 -73.5603 233° Southwest 380 437 16,100 60 Climbing Boston Center
09:58PM 41.9289 -73.6875 233° Southwest 392 451 16,100  Level Boston Center
09:59PM 41.8714 -73.7894 233° Southwest 392 451 16,100  Level Boston Center
10:00PM 41.7989 -73.9161 233° Southwest 392 451 16,100  Level Boston Center
10:01PM 41.7328 -74.0342 233° Southwest 392 451 16,100 -540 Level Boston Center
10:02PM 41.6686 -74.1464 233° Southwest 392 451 15,100 -960 Descending Boston Center
10:04PM 41.6042 -74.2586 232° Southwest 386 444 14,100 -1,380 Descending Boston Center
10:05PM 41.5419 -74.3650 232° Southwest 381 438 12,100 -2,220 Descending Boston Center
10:06PM 41.4842 -74.4631 232° Southwest 334 384 9,700 -2,160 Descending Boston Center
10:08PM 41.3500 -74.6000 217° Southwest 276 318 5,200 -1,740 Descending New York TRACON
10:09PM 41.3000 -74.5333 135° Southeast 279 321 4,200 -600 Descending New York TRACON
10:10PM 41.2500 -74.4500 129° Southeast 282 325 4,000 -120 Descending New York TRACON
10:11PM 41.2167 -74.3667 118° Southeast 284 327 4,000 -300 Level New York TRACON
10:12PM 41.1667 -74.2833 129° Southeast 279 321 3,400 -480 Descending New York TRACON
10:13PM 41.1167 -74.2000 129° Southeast 274 315 3,000 -180 Descending New York TRACON
10:14PM 41.0667 -74.1333 135° Southeast 238 274 3,100 -540 Climbing New York TRACON
10:15PM 41.0333 -74.0667 124° Southeast 213 245 2,000 -600 Descending New York TRACON
10:16PM 40.9833 -74.0500 166° South 191 220 2,000 -180 Level New York TRACON
10:17PM 40.9500 -74.0500 180° South 170 196 1,700 -540 Descending New York TRACON
10:18PM 40.9000 -74.0500 180° South 124 143 900 -660 Descending New York TRACON
10:19PM 40.8667 -74.0500 180° South 122 140 400 -600 Descending New York TRACON
10:21PM 40.8500 -74.0500 180° South  Level FlightAware Approximate
10:28PM 40.8501 -74.0608 180° South  Level Estimated